sensor_id;sensor_type;location;lat;lon;timestamp;P1;durP1;ratioP1;P2;durP2;ratioP2
19521;SDS011;9905;52.126;5.596;2023-08-01T00:00:47;34.40;;;33.05;;
19521;SDS011;9905;52.126;5.596;2023-08-01T00:03:14;37.53;;;35.88;;
19521;SDS011;9905;52.126;5.596;2023-08-01T00:05:41;33.92;;;32.53;;
19521;SDS011;9905;52.126;5.596;2023-08-01T00:08:11;35.10;;;33.53;;
19521;SDS011;9905;52.126;5.596;2023-08-01T00:10:38;33.88;;;31.92;;
19521;SDS011;9905;52.126;5.596;2023-08-01T00:13:05;32.50;;;31.00;;
19521;SDS011;9905;52.126;5.596;2023-08-01T00:15:33;35.13;;;33.63;;
19521;SDS011;9905;52.126;5.596;2023-08-01T00:18:00;34.15;;;32.50;;
19521;SDS011;9905;52.126;5.596;2023-08-01T00:20:27;33.53;;;31.90;;
19521;SDS011;9905;52.126;5.596;2023-08-01T00:22:54;35.35;;;33.85;;
19521;SDS011;9905;52.126;5.596;2023-08-01T00:25:22;34.42;;;32.97;;
19521;SDS011;9905;52.126;5.596;2023-08-01T00:27:49;35.03;;;33.63;;
19521;SDS011;9905;52.126;5.596;2023-08-01T00:30:16;32.28;;;30.58;;
19521;SDS011;9905;52.126;5.596;2023-08-01T00:32:43;32.25;;;30.70;;
19521;SDS011;9905;52.126;5.596;2023-08-01T00:35:09;32.85;;;31.35;;
19521;SDS011;9905;52.126;5.596;2023-08-01T00:37:37;32.42;;;30.92;;
19521;SDS011;9905;52.126;5.596;2023-08-01T00:40:04;32.70;;;31.30;;
19521;SDS011;9905;52.126;5.596;2023-08-01T00:42:35;32.13;;;30.55;;
19521;SDS011;9905;52.126;5.596;2023-08-01T00:45:02;32.00;;;30.45;;
19521;SDS011;9905;52.126;5.596;2023-08-01T00:47:29;31.40;;;29.90;;
19521;SDS011;9905;52.126;5.596;2023-08-01T00:49:56;32.42;;;30.90;;
19521;SDS011;9905;52.126;5.596;2023-08-01T00:52:23;34.80;;;32.90;;
19521;SDS011;9905;52.126;5.596;2023-08-01T00:54:50;32.90;;;31.17;;
19521;SDS011;9905;52.126;5.596;2023-08-01T00:57:17;31.08;;;29.40;;
19521;SDS011;9905;52.126;5.596;2023-08-01T00:59:45;32.15;;;30.35;;
19521;SDS011;9905;52.126;5.596;2023-08-01T01:02:12;32.92;;;31.17;;
19521;SDS011;9905;52.126;5.596;2023-08-01T01:04:39;31.85;;;30.15;;
19521;SDS011;9905;52.126;5.596;2023-08-01T01:07:06;30.75;;;29.35;;
19521;SDS011;9905;52.126;5.596;2023-08-01T01:09:33;30.30;;;28.83;;
19521;SDS011;9905;52.126;5.596;2023-08-01T01:11:59;30.60;;;29.25;;
19521;SDS011;9905;52.126;5.596;2023-08-01T01:14:27;30.60;;;29.20;;
19521;SDS011;9905;52.126;5.596;2023-08-01T01:16:56;29.95;;;28.73;;
19521;SDS011;9905;52.126;5.596;2023-08-01T01:19:22;31.58;;;30.17;;
19521;SDS011;9905;52.126;5.596;2023-08-01T01:21:51;30.42;;;28.90;;
19521;SDS011;9905;52.126;5.596;2023-08-01T01:24:18;31.08;;;29.67;;
19521;SDS011;9905;52.126;5.596;2023-08-01T01:26:47;31.75;;;29.95;;
19521;SDS011;9905;52.126;5.596;2023-08-01T01:29:15;32.70;;;31.13;;
19521;SDS011;9905;52.126;5.596;2023-08-01T01:31:42;31.65;;;30.08;;
19521;SDS011;9905;52.126;5.596;2023-08-01T01:34:09;29.88;;;28.65;;
19521;SDS011;9905;52.126;5.596;2023-08-01T01:36:36;34.03;;;32.33;;
19521;SDS011;9905;52.126;5.596;2023-08-01T01:39:04;32.53;;;30.83;;
19521;SDS011;9905;52.126;5.596;2023-08-01T01:41:31;33.00;;;31.25;;
19521;SDS011;9905;52.126;5.596;2023-08-01T01:43:58;32.50;;;31.00;;
19521;SDS011;9905;52.126;5.596;2023-08-01T01:46:25;34.95;;;33.25;;
19521;SDS011;9905;52.126;5.596;2023-08-01T01:48:52;33.55;;;31.77;;
19521;SDS011;9905;52.126;5.596;2023-08-01T01:51:19;35.45;;;33.72;;
19521;SDS011;9905;52.126;5.596;2023-08-01T01:53:46;34.63;;;32.60;;
19521;SDS011;9905;52.126;5.596;2023-08-01T01:56:14;35.78;;;33.88;;
19521;SDS011;9905;52.126;5.596;2023-08-01T01:58:41;35.78;;;33.95;;
19521;SDS011;9905;52.126;5.596;2023-08-01T02:01:07;34.00;;;31.92;;
19521;SDS011;9905;52.126;5.596;2023-08-01T02:03:34;38.08;;;36.03;;
19521;SDS011;9905;52.126;5.596;2023-08-01T02:06:02;35.70;;;33.72;;
19521;SDS011;9905;52.126;5.596;2023-08-01T02:08:29;35.95;;;34.05;;
19521;SDS011;9905;52.126;5.596;2023-08-01T02:10:56;37.67;;;35.55;;
19521;SDS011;9905;52.126;5.596;2023-08-01T02:13:25;37.08;;;35.08;;
19521;SDS011;9905;52.126;5.596;2023-08-01T02:15:53;36.75;;;34.55;;
19521;SDS011;9905;52.126;5.596;2023-08-01T02:18:20;39.25;;;37.08;;
19521;SDS011;9905;52.126;5.596;2023-08-01T02:20:47;39.97;;;37.80;;
19521;SDS011;9905;52.126;5.596;2023-08-01T02:23:13;38.08;;;36.00;;
19521;SDS011;9905;52.126;5.596;2023-08-01T02:25:40;40.97;;;38.67;;
19521;SDS011;9905;52.126;5.596;2023-08-01T02:28:07;39.50;;;37.10;;
19521;SDS011;9905;52.126;5.596;2023-08-01T02:30:35;39.28;;;36.70;;
19521;SDS011;9905;52.126;5.596;2023-08-01T02:33:03;41.53;;;39.33;;
19521;SDS011;9905;52.126;5.596;2023-08-01T02:35:30;39.17;;;36.58;;
19521;SDS011;9905;52.126;5.596;2023-08-01T02:37:56;40.35;;;38.03;;
19521;SDS011;9905;52.126;5.596;2023-08-01T02:40:23;40.38;;;38.13;;
19521;SDS011;9905;52.126;5.596;2023-08-01T02:42:51;41.33;;;38.40;;
19521;SDS011;9905;52.126;5.596;2023-08-01T02:45:18;39.50;;;37.35;;
19521;SDS011;9905;52.126;5.596;2023-08-01T02:47:47;39.38;;;37.00;;
19521;SDS011;9905;52.126;5.596;2023-08-01T02:50:13;40.40;;;37.78;;
19521;SDS011;9905;52.126;5.596;2023-08-01T02:52:40;40.28;;;37.70;;
19521;SDS011;9905;52.126;5.596;2023-08-01T02:55:07;42.42;;;39.92;;
19521;SDS011;9905;52.126;5.596;2023-08-01T02:57:34;40.05;;;37.67;;
19521;SDS011;9905;52.126;5.596;2023-08-01T03:00:05;41.85;;;39.22;;
19521;SDS011;9905;52.126;5.596;2023-08-01T03:02:36;42.05;;;39.05;;
19521;SDS011;9905;52.126;5.596;2023-08-01T03:05:05;43.10;;;40.60;;
19521;SDS011;9905;52.126;5.596;2023-08-01T03:07:32;41.80;;;39.00;;
19521;SDS011;9905;52.126;5.596;2023-08-01T03:09:59;43.78;;;40.67;;
19521;SDS011;9905;52.126;5.596;2023-08-01T03:12:27;43.08;;;40.40;;
19521;SDS011;9905;52.126;5.596;2023-08-01T03:14:54;42.03;;;39.60;;
19521;SDS011;9905;52.126;5.596;2023-08-01T03:17:20;40.10;;;37.85;;
19521;SDS011;9905;52.126;5.596;2023-08-01T03:19:47;41.13;;;38.92;;
19521;SDS011;9905;52.126;5.596;2023-08-01T03:22:17;39.22;;;37.17;;
19521;SDS011;9905;52.126;5.596;2023-08-01T03:24:44;37.85;;;35.70;;
19521;SDS011;9905;52.126;5.596;2023-08-01T03:27:11;40.25;;;37.63;;
19521;SDS011;9905;52.126;5.596;2023-08-01T03:29:38;39.45;;;36.97;;
19521;SDS011;9905;52.126;5.596;2023-08-01T03:32:05;40.15;;;37.95;;
19521;SDS011;9905;52.126;5.596;2023-08-01T03:34:32;41.50;;;39.45;;
19521;SDS011;9905;52.126;5.596;2023-08-01T03:36:59;38.33;;;36.35;;
19521;SDS011;9905;52.126;5.596;2023-08-01T03:39:27;39.88;;;37.28;;
19521;SDS011;9905;52.126;5.596;2023-08-01T03:41:53;39.00;;;36.83;;
19521;SDS011;9905;52.126;5.596;2023-08-01T03:44:20;40.03;;;37.97;;
19521;SDS011;9905;52.126;5.596;2023-08-01T03:46:48;39.42;;;37.30;;
19521;SDS011;9905;52.126;5.596;2023-08-01T03:49:15;40.50;;;38.47;;
19521;SDS011;9905;52.126;5.596;2023-08-01T03:51:42;38.70;;;36.65;;
19521;SDS011;9905;52.126;5.596;2023-08-01T03:54:08;42.38;;;40.15;;
19521;SDS011;9905;52.126;5.596;2023-08-01T03:56:36;39.88;;;37.80;;
19521;SDS011;9905;52.126;5.596;2023-08-01T03:59:08;40.30;;;38.20;;
19521;SDS011;9905;52.126;5.596;2023-08-01T04:01:34;41.35;;;39.10;;
19521;SDS011;9905;52.126;5.596;2023-08-01T04:04:01;39.92;;;37.83;;
19521;SDS011;9905;52.126;5.596;2023-08-01T04:06:28;41.22;;;38.90;;
19521;SDS011;9905;52.126;5.596;2023-08-01T04:08:55;43.03;;;40.67;;
19521;SDS011;9905;52.126;5.596;2023-08-01T04:11:22;44.92;;;42.53;;
19521;SDS011;9905;52.126;5.596;2023-08-01T04:13:50;44.67;;;42.13;;
19521;SDS011;9905;52.126;5.596;2023-08-01T04:16:17;44.40;;;41.50;;
19521;SDS011;9905;52.126;5.596;2023-08-01T04:18:44;44.30;;;41.90;;
19521;SDS011;9905;52.126;5.596;2023-08-01T04:21:11;44.67;;;42.35;;
19521;SDS011;9905;52.126;5.596;2023-08-01T04:23:39;44.33;;;42.00;;
19521;SDS011;9905;52.126;5.596;2023-08-01T04:26:06;44.38;;;41.97;;
19521;SDS011;9905;52.126;5.596;2023-08-01T04:28:33;44.58;;;42.17;;
19521;SDS011;9905;52.126;5.596;2023-08-01T04:31:01;44.50;;;42.15;;
19521;SDS011;9905;52.126;5.596;2023-08-01T04:33:28;44.53;;;42.08;;
19521;SDS011;9905;52.126;5.596;2023-08-01T04:35:55;45.20;;;42.28;;
19521;SDS011;9905;52.126;5.596;2023-08-01T04:38:21;43.15;;;40.90;;
19521;SDS011;9905;52.126;5.596;2023-08-01T04:40:48;43.47;;;40.97;;
19521;SDS011;9905;52.126;5.596;2023-08-01T04:43:15;44.55;;;41.92;;
19521;SDS011;9905;52.126;5.596;2023-08-01T04:45:42;45.42;;;42.70;;
19521;SDS011;9905;52.126;5.596;2023-08-01T04:48:10;45.20;;;42.13;;
19521;SDS011;9905;52.126;5.596;2023-08-01T04:50:37;44.03;;;41.22;;
19521;SDS011;9905;52.126;5.596;2023-08-01T04:53:03;45.55;;;42.90;;
19521;SDS011;9905;52.126;5.596;2023-08-01T04:55:31;43.33;;;40.75;;
19521;SDS011;9905;52.126;5.596;2023-08-01T04:57:58;43.67;;;41.28;;
19521;SDS011;9905;52.126;5.596;2023-08-01T05:00:25;45.58;;;43.08;;
19521;SDS011;9905;52.126;5.596;2023-08-01T05:02:51;44.20;;;41.75;;
19521;SDS011;9905;52.126;5.596;2023-08-01T05:05:19;44.33;;;41.92;;
19521;SDS011;9905;52.126;5.596;2023-08-01T05:07:46;45.13;;;42.58;;
19521;SDS011;9905;52.126;5.596;2023-08-01T05:10:13;47.08;;;44.22;;
19521;SDS011;9905;52.126;5.596;2023-08-01T05:12:40;47.65;;;44.50;;
19521;SDS011;9905;52.126;5.596;2023-08-01T05:15:07;47.97;;;44.85;;
19521;SDS011;9905;52.126;5.596;2023-08-01T05:17:34;45.95;;;43.40;;
19521;SDS011;9905;52.126;5.596;2023-08-01T05:20:01;47.83;;;44.72;;
19521;SDS011;9905;52.126;5.596;2023-08-01T05:22:30;47.22;;;44.33;;
19521;SDS011;9905;52.126;5.596;2023-08-01T05:24:57;49.45;;;46.25;;
19521;SDS011;9905;52.126;5.596;2023-08-01T05:27:24;47.45;;;44.47;;
19521;SDS011;9905;52.126;5.596;2023-08-01T05:29:51;47.53;;;44.35;;
19521;SDS011;9905;52.126;5.596;2023-08-01T05:32:17;47.65;;;44.67;;
19521;SDS011;9905;52.126;5.596;2023-08-01T05:34:44;48.72;;;45.80;;
19521;SDS011;9905;52.126;5.596;2023-08-01T05:37:11;49.50;;;45.90;;
19521;SDS011;9905;52.126;5.596;2023-08-01T05:39:39;49.78;;;46.72;;
19521;SDS011;9905;52.126;5.596;2023-08-01T05:42:06;50.28;;;47.05;;
19521;SDS011;9905;52.126;5.596;2023-08-01T05:44:34;47.30;;;44.38;;
19521;SDS011;9905;52.126;5.596;2023-08-01T05:47:01;46.10;;;43.42;;
19521;SDS011;9905;52.126;5.596;2023-08-01T05:49:28;49.20;;;45.67;;
19521;SDS011;9905;52.126;5.596;2023-08-01T05:51:55;48.53;;;44.97;;
19521;SDS011;9905;52.126;5.596;2023-08-01T05:54:22;47.08;;;43.97;;
19521;SDS011;9905;52.126;5.596;2023-08-01T05:56:50;46.90;;;43.85;;
19521;SDS011;9905;52.126;5.596;2023-08-01T05:59:17;47.17;;;43.72;;
19521;SDS011;9905;52.126;5.596;2023-08-01T06:01:44;46.92;;;44.03;;
19521;SDS011;9905;52.126;5.596;2023-08-01T06:04:11;49.22;;;45.95;;
19521;SDS011;9905;52.126;5.596;2023-08-01T06:06:38;45.90;;;42.95;;
19521;SDS011;9905;52.126;5.596;2023-08-01T06:09:05;46.67;;;43.70;;
19521;SDS011;9905;52.126;5.596;2023-08-01T06:11:32;46.85;;;43.70;;
19521;SDS011;9905;52.126;5.596;2023-08-01T06:14:01;46.90;;;43.72;;
19521;SDS011;9905;52.126;5.596;2023-08-01T06:16:27;47.40;;;44.25;;
19521;SDS011;9905;52.126;5.596;2023-08-01T06:18:54;48.03;;;44.60;;
19521;SDS011;9905;52.126;5.596;2023-08-01T06:21:21;48.80;;;45.85;;
19521;SDS011;9905;52.126;5.596;2023-08-01T06:23:47;49.25;;;45.90;;
19521;SDS011;9905;52.126;5.596;2023-08-01T06:26:14;48.92;;;45.70;;
19521;SDS011;9905;52.126;5.596;2023-08-01T06:28:41;46.78;;;43.95;;
19521;SDS011;9905;52.126;5.596;2023-08-01T06:31:09;46.50;;;43.13;;
19521;SDS011;9905;52.126;5.596;2023-08-01T06:33:36;46.85;;;43.90;;
19521;SDS011;9905;52.126;5.596;2023-08-01T06:36:03;46.58;;;43.58;;
19521;SDS011;9905;52.126;5.596;2023-08-01T06:38:31;44.58;;;41.85;;
19521;SDS011;9905;52.126;5.596;2023-08-01T06:40:58;45.30;;;42.38;;
19521;SDS011;9905;52.126;5.596;2023-08-01T06:43:24;43.40;;;40.80;;
19521;SDS011;9905;52.126;5.596;2023-08-01T06:45:51;43.42;;;40.78;;
19521;SDS011;9905;52.126;5.596;2023-08-01T06:48:19;42.20;;;39.72;;
19521;SDS011;9905;52.126;5.596;2023-08-01T06:50:46;42.42;;;39.83;;
19521;SDS011;9905;52.126;5.596;2023-08-01T06:53:13;43.95;;;41.30;;
19521;SDS011;9905;52.126;5.596;2023-08-01T06:55:40;41.60;;;39.05;;
19521;SDS011;9905;52.126;5.596;2023-08-01T06:58:06;42.78;;;40.13;;
19521;SDS011;9905;52.126;5.596;2023-08-01T07:00:33;41.53;;;39.05;;
19521;SDS011;9905;52.126;5.596;2023-08-01T07:03:00;38.83;;;36.72;;
19521;SDS011;9905;52.126;5.596;2023-08-01T07:05:28;39.58;;;37.35;;
19521;SDS011;9905;52.126;5.596;2023-08-01T07:07:55;37.55;;;35.30;;
19521;SDS011;9905;52.126;5.596;2023-08-01T07:10:23;36.75;;;34.53;;
19521;SDS011;9905;52.126;5.596;2023-08-01T07:12:50;38.50;;;35.90;;
19521;SDS011;9905;52.126;5.596;2023-08-01T07:15:16;37.42;;;34.83;;
19521;SDS011;9905;52.126;5.596;2023-08-01T07:17:43;35.20;;;33.00;;
19521;SDS011;9905;52.126;5.596;2023-08-01T07:20:10;33.63;;;31.58;;
19521;SDS011;9905;52.126;5.596;2023-08-01T07:22:39;32.78;;;30.88;;
19521;SDS011;9905;52.126;5.596;2023-08-01T07:25:06;32.13;;;29.80;;
19521;SDS011;9905;52.126;5.596;2023-08-01T07:27:33;28.25;;;26.48;;
19521;SDS011;9905;52.126;5.596;2023-08-01T07:30:02;26.00;;;24.40;;
19521;SDS011;9905;52.126;5.596;2023-08-01T07:32:30;27.75;;;26.13;;
19521;SDS011;9905;52.126;5.596;2023-08-01T07:34:56;25.00;;;23.70;;
19521;SDS011;9905;52.126;5.596;2023-08-01T07:37:23;25.95;;;24.73;;
19521;SDS011;9905;52.126;5.596;2023-08-01T07:39:54;26.27;;;24.88;;
19521;SDS011;9905;52.126;5.596;2023-08-01T07:42:21;24.73;;;23.20;;
19521;SDS011;9905;52.126;5.596;2023-08-01T07:44:48;24.15;;;23.08;;
19521;SDS011;9905;52.126;5.596;2023-08-01T07:47:15;25.05;;;23.30;;
19521;SDS011;9905;52.126;5.596;2023-08-01T07:49:41;25.95;;;24.38;;
19521;SDS011;9905;52.126;5.596;2023-08-01T07:52:08;28.20;;;26.52;;
19521;SDS011;9905;52.126;5.596;2023-08-01T07:54:35;27.83;;;26.45;;
19521;SDS011;9905;52.126;5.596;2023-08-01T07:57:04;28.40;;;26.70;;
19521;SDS011;9905;52.126;5.596;2023-08-01T07:59:31;27.20;;;25.80;;
19521;SDS011;9905;52.126;5.596;2023-08-01T08:01:58;29.40;;;27.63;;
19521;SDS011;9905;52.126;5.596;2023-08-01T08:04:25;28.48;;;27.08;;
19521;SDS011;9905;52.126;5.596;2023-08-01T08:06:51;25.27;;;23.88;;
19521;SDS011;9905;52.126;5.596;2023-08-01T08:09:20;25.33;;;23.80;;
19521;SDS011;9905;52.126;5.596;2023-08-01T08:11:47;25.83;;;24.27;;
19521;SDS011;9905;52.126;5.596;2023-08-01T08:14:16;26.35;;;24.65;;
19521;SDS011;9905;52.126;5.596;2023-08-01T08:16:45;26.75;;;25.45;;
19521;SDS011;9905;52.126;5.596;2023-08-01T08:19:12;28.95;;;27.58;;
19521;SDS011;9905;52.126;5.596;2023-08-01T08:21:39;28.77;;;27.02;;
19521;SDS011;9905;52.126;5.596;2023-08-01T08:24:05;30.15;;;28.50;;
19521;SDS011;9905;52.126;5.596;2023-08-01T08:26:32;33.10;;;31.33;;
19521;SDS011;9905;52.126;5.596;2023-08-01T08:29:02;34.50;;;32.55;;
19521;SDS011;9905;52.126;5.596;2023-08-01T08:31:31;32.97;;;31.25;;
19521;SDS011;9905;52.126;5.596;2023-08-01T08:33:58;28.40;;;27.08;;
19521;SDS011;9905;52.126;5.596;2023-08-01T08:36:25;29.38;;;27.77;;
19521;SDS011;9905;52.126;5.596;2023-08-01T08:38:52;27.30;;;25.90;;
19521;SDS011;9905;52.126;5.596;2023-08-01T08:41:20;24.40;;;22.95;;
19521;SDS011;9905;52.126;5.596;2023-08-01T08:43:48;21.10;;;19.88;;
19521;SDS011;9905;52.126;5.596;2023-08-01T08:46:15;21.33;;;20.27;;
19521;SDS011;9905;52.126;5.596;2023-08-01T08:48:44;18.00;;;17.00;;
19521;SDS011;9905;52.126;5.596;2023-08-01T08:51:11;17.77;;;16.75;;
19521;SDS011;9905;52.126;5.596;2023-08-01T08:53:40;17.25;;;16.10;;
19521;SDS011;9905;52.126;5.596;2023-08-01T08:56:08;16.27;;;15.52;;
19521;SDS011;9905;52.126;5.596;2023-08-01T08:58:36;15.88;;;15.18;;
19521;SDS011;9905;52.126;5.596;2023-08-01T09:01:05;12.65;;;12.07;;
19521;SDS011;9905;52.126;5.596;2023-08-01T09:03:33;12.52;;;11.93;;
19521;SDS011;9905;52.126;5.596;2023-08-01T09:06:02;12.52;;;11.93;;
19521;SDS011;9905;52.126;5.596;2023-08-01T09:08:35;11.57;;;11.13;;
19521;SDS011;9905;52.126;5.596;2023-08-01T09:11:03;11.38;;;10.82;;
19521;SDS011;9905;52.126;5.596;2023-08-01T09:13:30;9.60;;;9.10;;
19521;SDS011;9905;52.126;5.596;2023-08-01T09:15:58;10.50;;;9.77;;
19521;SDS011;9905;52.126;5.596;2023-08-01T09:18:27;10.60;;;9.93;;
19521;SDS011;9905;52.126;5.596;2023-08-01T09:20:54;10.20;;;9.60;;
19521;SDS011;9905;52.126;5.596;2023-08-01T09:23:26;8.85;;;8.35;;
19521;SDS011;9905;52.126;5.596;2023-08-01T09:25:53;9.27;;;8.57;;
19521;SDS011;9905;52.126;5.596;2023-08-01T09:28:20;9.98;;;9.27;;
19521;SDS011;9905;52.126;5.596;2023-08-01T09:30:48;8.90;;;8.30;;
19521;SDS011;9905;52.126;5.596;2023-08-01T09:33:16;10.23;;;9.10;;
19521;SDS011;9905;52.126;5.596;2023-08-01T09:35:43;9.73;;;8.98;;
19521;SDS011;9905;52.126;5.596;2023-08-01T09:38:11;9.20;;;8.80;;
19521;SDS011;9905;52.126;5.596;2023-08-01T09:40:40;10.63;;;10.13;;
19521;SDS011;9905;52.126;5.596;2023-08-01T09:43:08;10.73;;;10.10;;
19521;SDS011;9905;52.126;5.596;2023-08-01T09:45:35;9.68;;;9.20;;
19521;SDS011;9905;52.126;5.596;2023-08-01T09:48:02;10.25;;;9.60;;
19521;SDS011;9905;52.126;5.596;2023-08-01T09:50:30;9.93;;;9.15;;
19521;SDS011;9905;52.126;5.596;2023-08-01T09:53:06;9.23;;;8.50;;
19521;SDS011;9905;52.126;5.596;2023-08-01T09:55:34;9.05;;;8.48;;
19521;SDS011;9905;52.126;5.596;2023-08-01T09:58:02;9.52;;;8.60;;
19521;SDS011;9905;52.126;5.596;2023-08-01T10:00:32;9.32;;;8.93;;
19521;SDS011;9905;52.126;5.596;2023-08-01T10:02:59;7.95;;;7.65;;
19521;SDS011;9905;52.126;5.596;2023-08-01T10:05:29;8.77;;;8.18;;
19521;SDS011;9905;52.126;5.596;2023-08-01T10:07:58;8.20;;;7.70;;
19521;SDS011;9905;52.126;5.596;2023-08-01T10:10:26;8.27;;;7.78;;
19521;SDS011;9905;52.126;5.596;2023-08-01T10:12:53;8.73;;;8.00;;
19521;SDS011;9905;52.126;5.596;2023-08-01T10:15:23;7.57;;;7.18;;
19521;SDS011;9905;52.126;5.596;2023-08-01T10:17:51;7.75;;;7.35;;
19521;SDS011;9905;52.126;5.596;2023-08-01T10:20:18;8.43;;;7.82;;
19521;SDS011;9905;52.126;5.596;2023-08-01T10:22:46;8.77;;;7.97;;
19521;SDS011;9905;52.126;5.596;2023-08-01T10:25:15;7.68;;;7.03;;
19521;SDS011;9905;52.126;5.596;2023-08-01T10:27:43;7.55;;;7.13;;
19521;SDS011;9905;52.126;5.596;2023-08-01T10:30:10;7.10;;;6.70;;
19521;SDS011;9905;52.126;5.596;2023-08-01T10:32:39;7.57;;;7.00;;
19521;SDS011;9905;52.126;5.596;2023-08-01T10:35:06;6.55;;;6.15;;
19521;SDS011;9905;52.126;5.596;2023-08-01T10:37:40;6.47;;;6.00;;
19521;SDS011;9905;52.126;5.596;2023-08-01T10:40:07;4.90;;;4.70;;
19521;SDS011;9905;52.126;5.596;2023-08-01T10:42:38;4.95;;;4.60;;
19521;SDS011;9905;52.126;5.596;2023-08-01T10:45:06;4.78;;;4.57;;
19521;SDS011;9905;52.126;5.596;2023-08-01T10:47:34;5.82;;;5.47;;
19521;SDS011;9905;52.126;5.596;2023-08-01T10:50:02;6.30;;;5.13;;
19521;SDS011;9905;52.126;5.596;2023-08-01T10:52:40;5.50;;;5.00;;
19521;SDS011;9905;52.126;5.596;2023-08-01T10:55:07;5.15;;;4.63;;
19521;SDS011;9905;52.126;5.596;2023-08-01T10:57:34;5.07;;;4.20;;
19521;SDS011;9905;52.126;5.596;2023-08-01T11:00:02;4.78;;;4.45;;
19521;SDS011;9905;52.126;5.596;2023-08-01T11:02:34;4.65;;;4.30;;
19521;SDS011;9905;52.126;5.596;2023-08-01T11:05:03;6.72;;;4.75;;
19521;SDS011;9905;52.126;5.596;2023-08-01T11:07:30;4.30;;;4.00;;
19521;SDS011;9905;52.126;5.596;2023-08-01T11:10:04;4.85;;;4.45;;
19521;SDS011;9905;52.126;5.596;2023-08-01T11:12:33;4.32;;;3.97;;
19521;SDS011;9905;52.126;5.596;2023-08-01T11:15:02;3.72;;;3.42;;
19521;SDS011;9905;52.126;5.596;2023-08-01T11:17:30;4.72;;;3.30;;
19521;SDS011;9905;52.126;5.596;2023-08-01T11:20:02;4.45;;;4.05;;
19521;SDS011;9905;52.126;5.596;2023-08-01T11:22:30;3.53;;;3.30;;
19521;SDS011;9905;52.126;5.596;2023-08-01T11:24:57;3.92;;;3.70;;
19521;SDS011;9905;52.126;5.596;2023-08-01T11:27:24;3.75;;;3.55;;
19521;SDS011;9905;52.126;5.596;2023-08-01T11:29:51;3.63;;;3.33;;
19521;SDS011;9905;52.126;5.596;2023-08-01T11:32:19;3.67;;;3.47;;
19521;SDS011;9905;52.126;5.596;2023-08-01T11:34:46;3.42;;;3.10;;
19521;SDS011;9905;52.126;5.596;2023-08-01T11:37:17;4.00;;;3.70;;
19521;SDS011;9905;52.126;5.596;2023-08-01T11:39:45;3.97;;;3.67;;
19521;SDS011;9905;52.126;5.596;2023-08-01T11:42:15;4.43;;;4.10;;
19521;SDS011;9905;52.126;5.596;2023-08-01T11:44:43;4.10;;;3.80;;
19521;SDS011;9905;52.126;5.596;2023-08-01T11:47:11;3.75;;;3.30;;
19521;SDS011;9905;52.126;5.596;2023-08-01T11:49:39;3.88;;;3.58;;
19521;SDS011;9905;52.126;5.596;2023-08-01T11:52:22;3.53;;;3.40;;
19521;SDS011;9905;52.126;5.596;2023-08-01T11:54:50;3.60;;;3.40;;
19521;SDS011;9905;52.126;5.596;2023-08-01T11:57:17;3.58;;;3.38;;
19521;SDS011;9905;52.126;5.596;2023-08-01T11:59:47;4.03;;;3.65;;
19521;SDS011;9905;52.126;5.596;2023-08-01T12:02:21;4.13;;;3.28;;
19521;SDS011;9905;52.126;5.596;2023-08-01T12:04:48;4.40;;;3.78;;
19521;SDS011;9905;52.126;5.596;2023-08-01T12:07:15;3.17;;;3.00;;
19521;SDS011;9905;52.126;5.596;2023-08-01T12:09:44;3.00;;;2.90;;
19521;SDS011;9905;52.126;5.596;2023-08-01T12:12:20;3.55;;;3.40;;
19521;SDS011;9905;52.126;5.596;2023-08-01T12:14:47;4.88;;;3.50;;
19521;SDS011;9905;52.126;5.596;2023-08-01T12:17:14;3.58;;;3.28;;
19521;SDS011;9905;52.126;5.596;2023-08-01T12:19:41;5.00;;;3.47;;
19521;SDS011;9905;52.126;5.596;2023-08-01T12:22:08;3.03;;;2.83;;
19521;SDS011;9905;52.126;5.596;2023-08-01T12:24:35;3.80;;;3.53;;
19521;SDS011;9905;52.126;5.596;2023-08-01T12:27:04;3.40;;;2.80;;
19521;SDS011;9905;52.126;5.596;2023-08-01T12:29:32;4.28;;;3.40;;
19521;SDS011;9905;52.126;5.596;2023-08-01T12:31:58;3.40;;;3.20;;
19521;SDS011;9905;52.126;5.596;2023-08-01T12:34:25;4.43;;;3.50;;
19521;SDS011;9905;52.126;5.596;2023-08-01T12:36:52;4.90;;;3.35;;
19521;SDS011;9905;52.126;5.596;2023-08-01T12:39:19;4.38;;;3.50;;
19521;SDS011;9905;52.126;5.596;2023-08-01T12:41:46;4.10;;;3.60;;
19521;SDS011;9905;52.126;5.596;2023-08-01T12:44:14;3.55;;;3.25;;
19521;SDS011;9905;52.126;5.596;2023-08-01T12:46:42;4.65;;;3.40;;
19521;SDS011;9905;52.126;5.596;2023-08-01T12:49:09;5.80;;;3.33;;
19521;SDS011;9905;52.126;5.596;2023-08-01T12:51:36;5.93;;;3.70;;
19521;SDS011;9905;52.126;5.596;2023-08-01T12:54:03;5.63;;;3.30;;
19521;SDS011;9905;52.126;5.596;2023-08-01T12:56:30;5.00;;;3.33;;
19521;SDS011;9905;52.126;5.596;2023-08-01T12:58:57;6.60;;;3.90;;
19521;SDS011;9905;52.126;5.596;2023-08-01T13:01:25;4.18;;;3.80;;
19521;SDS011;9905;52.126;5.596;2023-08-01T13:03:52;3.90;;;3.58;;
19521;SDS011;9905;52.126;5.596;2023-08-01T13:06:19;3.40;;;3.15;;
19521;SDS011;9905;52.126;5.596;2023-08-01T13:08:45;5.45;;;3.13;;
19521;SDS011;9905;52.126;5.596;2023-08-01T13:11:13;5.40;;;3.58;;
19521;SDS011;9905;52.126;5.596;2023-08-01T13:13:40;3.50;;;3.20;;
19521;SDS011;9905;52.126;5.596;2023-08-01T13:16:08;4.70;;;3.22;;
19521;SDS011;9905;52.126;5.596;2023-08-01T13:18:36;3.33;;;3.20;;
19521;SDS011;9905;52.126;5.596;2023-08-01T13:21:08;4.47;;;2.88;;
19521;SDS011;9905;52.126;5.596;2023-08-01T13:23:35;3.30;;;3.10;;
19521;SDS011;9905;52.126;5.596;2023-08-01T13:26:02;3.30;;;3.10;;
19521;SDS011;9905;52.126;5.596;2023-08-01T13:28:29;3.35;;;3.05;;
19521;SDS011;9905;52.126;5.596;2023-08-01T13:30:56;3.78;;;3.22;;
19521;SDS011;9905;52.126;5.596;2023-08-01T13:33:23;4.15;;;2.78;;
19521;SDS011;9905;52.126;5.596;2023-08-01T13:35:52;3.53;;;3.22;;
19521;SDS011;9905;52.126;5.596;2023-08-01T13:38:19;5.28;;;3.08;;
19521;SDS011;9905;52.126;5.596;2023-08-01T13:40:46;4.30;;;3.33;;
19521;SDS011;9905;52.126;5.596;2023-08-01T13:43:13;3.90;;;3.28;;
19521;SDS011;9905;52.126;5.596;2023-08-01T13:45:40;7.13;;;3.65;;
19521;SDS011;9905;52.126;5.596;2023-08-01T13:48:07;3.95;;;3.50;;
19521;SDS011;9905;52.126;5.596;2023-08-01T13:50:34;3.97;;;3.55;;
19521;SDS011;9905;52.126;5.596;2023-08-01T13:53:02;5.00;;;3.63;;
19521;SDS011;9905;52.126;5.596;2023-08-01T13:55:32;4.22;;;3.92;;
19521;SDS011;9905;52.126;5.596;2023-08-01T13:57:59;8.35;;;4.28;;
19521;SDS011;9905;52.126;5.596;2023-08-01T14:00:26;5.03;;;3.70;;
19521;SDS011;9905;52.126;5.596;2023-08-01T14:02:52;6.38;;;3.75;;
19521;SDS011;9905;52.126;5.596;2023-08-01T14:05:20;6.80;;;3.50;;
19521;SDS011;9905;52.126;5.596;2023-08-01T14:07:47;4.35;;;4.05;;
19521;SDS011;9905;52.126;5.596;2023-08-01T14:10:15;4.65;;;3.55;;
19521;SDS011;9905;52.126;5.596;2023-08-01T14:12:42;5.47;;;3.70;;
19521;SDS011;9905;52.126;5.596;2023-08-01T14:15:09;3.65;;;3.35;;
19521;SDS011;9905;52.126;5.596;2023-08-01T14:17:37;3.60;;;3.30;;
19521;SDS011;9905;52.126;5.596;2023-08-01T14:20:05;3.55;;;3.20;;
19521;SDS011;9905;52.126;5.596;2023-08-01T14:22:32;4.70;;;3.60;;
19521;SDS011;9905;52.126;5.596;2023-08-01T14:24:59;3.30;;;3.03;;
19521;SDS011;9905;52.126;5.596;2023-08-01T14:27:27;4.25;;;3.50;;
19521;SDS011;9905;52.126;5.596;2023-08-01T14:29:54;2.90;;;2.70;;
19521;SDS011;9905;52.126;5.596;2023-08-01T14:32:21;3.72;;;3.15;;
19521;SDS011;9905;52.126;5.596;2023-08-01T14:34:48;3.95;;;3.15;;
19521;SDS011;9905;52.126;5.596;2023-08-01T14:37:15;3.33;;;3.20;;
19521;SDS011;9905;52.126;5.596;2023-08-01T14:39:42;3.33;;;3.13;;
19521;SDS011;9905;52.126;5.596;2023-08-01T14:42:09;3.22;;;2.88;;
19521;SDS011;9905;52.126;5.596;2023-08-01T14:44:37;4.82;;;3.53;;